sensor_id;sensor_type;location;lat;lon;timestamp;pressure;altitude;pressure_sealevel;temperature;humidity
60646;BME280;46462;32.608;-117.032;2022-11-15T00:00:02;99726.44;;;20.70;30.78
60646;BME280;46462;32.608;-117.032;2022-11-15T00:02:32;99727.14;;;20.83;30.60
60646;BME280;46462;32.608;-117.032;2022-11-15T00:05:07;99731.02;;;20.64;30.94
60646;BME280;46462;32.608;-117.032;2022-11-15T00:07:37;99734.17;;;20.55;31.00
60646;BME280;46462;32.608;-117.032;2022-11-15T00:10:08;99737.15;;;20.72;30.72
60646;BME280;46462;32.608;-117.032;2022-11-15T00:12:38;99734.53;;;20.45;31.27
60646;BME280;46462;32.608;-117.032;2022-11-15T00:15:09;99735.59;;;20.50;31.19
60646;BME280;46462;32.608;-117.032;2022-11-15T00:17:38;99736.72;;;20.38;31.40
60646;BME280;46462;32.608;-117.032;2022-11-15T00:20:09;99739.53;;;20.34;31.29
60646;BME280;46462;32.608;-117.032;2022-11-15T00:22:38;99743.61;;;20.32;31.17
60646;BME280;46462;32.608;-117.032;2022-11-15T00:25:09;99749.15;;;20.21;31.31
60646;BME280;46462;32.608;-117.032;2022-11-15T00:27:39;99751.08;;;20.19;31.22
60646;BME280;46462;32.608;-117.032;2022-11-15T00:30:10;99749.80;;;20.19;31.12
60646;BME280;46462;32.608;-117.032;2022-11-15T00:32:39;99733.71;;;22.56;27.70
60646;BME280;46462;32.608;-117.032;2022-11-15T00:35:10;99735.49;;;23.84;25.69
60646;BME280;46462;32.608;-117.032;2022-11-15T00:37:40;99735.43;;;24.66;24.51
60646;BME280;46462;32.608;-117.032;2022-11-15T00:40:11;99736.93;;;25.15;23.78
60646;BME280;46462;32.608;-117.032;2022-11-15T00:42:41;99739.27;;;25.67;23.21
60646;BME280;46462;32.608;-117.032;2022-11-15T00:45:10;99735.75;;;25.89;22.93
60646;BME280;46462;32.608;-117.032;2022-11-15T00:47:41;99737.55;;;26.08;22.71
60646;BME280;46462;32.608;-117.032;2022-11-15T00:50:11;99742.47;;;26.12;22.59
60646;BME280;46462;32.608;-117.032;2022-11-15T00:52:41;99743.15;;;26.21;22.46
60646;BME280;46462;32.608;-117.032;2022-11-15T00:55:14;99742.94;;;26.25;22.34
60646;BME280;46462;32.608;-117.032;2022-11-15T00:57:41;99742.54;;;26.30;22.37
60646;BME280;46462;32.608;-117.032;2022-11-15T01:00:13;99740.66;;;26.23;22.69
60646;BME280;46462;32.608;-117.032;2022-11-15T01:02:42;99739.17;;;26.40;22.35
60646;BME280;46462;32.608;-117.032;2022-11-15T01:05:12;99737.43;;;26.39;22.44
60646;BME280;46462;32.608;-117.032;2022-11-15T01:07:42;99740.87;;;26.38;22.62
60646;BME280;46462;32.608;-117.032;2022-11-15T01:10:13;99746.70;;;26.25;22.96
60646;BME280;46462;32.608;-117.032;2022-11-15T01:12:43;99746.56;;;26.22;23.11
60646;BME280;46462;32.608;-117.032;2022-11-15T01:15:13;99749.16;;;26.18;23.10
60646;BME280;46462;32.608;-117.032;2022-11-15T01:17:43;99746.94;;;26.22;23.20
60646;BME280;46462;32.608;-117.032;2022-11-15T01:20:13;99747.14;;;26.23;23.17
60646;BME280;46462;32.608;-117.032;2022-11-15T01:22:43;99747.51;;;26.25;23.30
60646;BME280;46462;32.608;-117.032;2022-11-15T01:25:14;99752.16;;;26.24;23.22
60646;BME280;46462;32.608;-117.032;2022-11-15T01:27:44;99751.06;;;26.22;23.27
60646;BME280;46462;32.608;-117.032;2022-11-15T01:30:14;99751.63;;;26.20;23.52
60646;BME280;46462;32.608;-117.032;2022-11-15T01:32:44;99750.73;;;26.21;23.48
60646;BME280;46462;32.608;-117.032;2022-11-15T01:35:14;99752.07;;;26.16;23.71
60646;BME280;46462;32.608;-117.032;2022-11-15T01:37:45;99751.50;;;26.05;23.88
60646;BME280;46462;32.608;-117.032;2022-11-15T01:40:15;99752.83;;;25.99;23.84
60646;BME280;46462;32.608;-117.032;2022-11-15T01:42:45;99752.10;;;25.95;24.00
60646;BME280;46462;32.608;-117.032;2022-11-15T01:45:16;99752.33;;;25.95;24.10
60646;BME280;46462;32.608;-117.032;2022-11-15T01:47:48;99755.42;;;25.91;24.11
60646;BME280;46462;32.608;-117.032;2022-11-15T01:50:19;99763.15;;;25.85;24.10
60646;BME280;46462;32.608;-117.032;2022-11-15T01:52:46;99765.69;;;25.86;24.28
60646;BME280;46462;32.608;-117.032;2022-11-15T01:55:20;99771.24;;;25.82;24.26
60646;BME280;46462;32.608;-117.032;2022-11-15T01:57:49;99772.42;;;25.85;24.40
60646;BME280;46462;32.608;-117.032;2022-11-15T02:00:17;99775.03;;;25.88;24.43
60646;BME280;46462;32.608;-117.032;2022-11-15T02:02:47;99773.77;;;25.86;24.27
60646;BME280;46462;32.608;-117.032;2022-11-15T02:05:17;99769.91;;;25.80;24.42
60646;BME280;46462;32.608;-117.032;2022-11-15T02:07:48;99771.95;;;25.81;24.52
60646;BME280;46462;32.608;-117.032;2022-11-15T02:10:20;99771.89;;;25.76;24.48
60646;BME280;46462;32.608;-117.032;2022-11-15T02:12:48;99773.32;;;25.78;24.57
60646;BME280;46462;32.608;-117.032;2022-11-15T02:15:18;99772.43;;;25.74;24.64
60646;BME280;46462;32.608;-117.032;2022-11-15T02:18:00;99773.94;;;25.72;24.60
60646;BME280;46462;32.608;-117.032;2022-11-15T02:23:00;99778.13;;;25.72;24.75
60646;BME280;46462;32.608;-117.032;2022-11-15T02:27:59;99774.46;;;25.69;24.83
60646;BME280;46462;32.608;-117.032;2022-11-15T02:30:22;99773.41;;;25.73;24.76
60646;BME280;46462;32.608;-117.032;2022-11-15T02:32:54;99773.90;;;25.68;24.88
60646;BME280;46462;32.608;-117.032;2022-11-15T02:35:26;99768.13;;;25.63;25.17
60646;BME280;46462;32.608;-117.032;2022-11-15T02:37:55;99764.16;;;25.62;25.12
60646;BME280;46462;32.608;-117.032;2022-11-15T02:40:29;99761.67;;;25.59;25.14
60646;BME280;46462;32.608;-117.032;2022-11-15T02:42:55;99756.18;;;25.58;25.22
60646;BME280;46462;32.608;-117.032;2022-11-15T02:45:24;99753.62;;;25.59;25.15
60646;BME280;46462;32.608;-117.032;2022-11-15T02:47:53;99750.36;;;25.57;25.16
60646;BME280;46462;32.608;-117.032;2022-11-15T02:50:23;99746.20;;;25.55;25.23
60646;BME280;46462;32.608;-117.032;2022-11-15T02:52:51;99749.33;;;25.50;25.35
60646;BME280;46462;32.608;-117.032;2022-11-15T02:55:26;99748.91;;;25.48;25.44
60646;BME280;46462;32.608;-117.032;2022-11-15T02:57:55;99745.14;;;25.47;25.55
60646;BME280;46462;32.608;-117.032;2022-11-15T03:00:22;99746.33;;;25.45;25.54
60646;BME280;46462;32.608;-117.032;2022-11-15T03:03:06;99746.03;;;25.43;25.55
60646;BME280;46462;32.608;-117.032;2022-11-15T03:05:29;99749.49;;;25.46;25.49
60646;BME280;46462;32.608;-117.032;2022-11-15T03:07:57;99751.56;;;25.43;25.45
60646;BME280;46462;32.608;-117.032;2022-11-15T03:10:30;99752.18;;;25.41;25.58
60646;BME280;46462;32.608;-117.032;2022-11-15T03:12:57;99750.54;;;25.37;25.71
60646;BME280;46462;32.608;-117.032;2022-11-15T03:15:27;99754.97;;;25.33;25.84
60646;BME280;46462;32.608;-117.032;2022-11-15T03:17:57;99753.97;;;25.32;25.78
60646;BME280;46462;32.608;-117.032;2022-11-15T03:20:25;99756.10;;;25.29;25.76
60646;BME280;46462;32.608;-117.032;2022-11-15T03:22:55;99763.97;;;25.30;25.87
60646;BME280;46462;32.608;-117.032;2022-11-15T03:25:25;99763.96;;;25.28;25.97
60646;BME280;46462;32.608;-117.032;2022-11-15T03:27:57;99762.30;;;25.26;25.84
60646;BME280;46462;32.608;-117.032;2022-11-15T03:30:24;99758.77;;;25.22;25.93
60646;BME280;46462;32.608;-117.032;2022-11-15T03:32:56;99757.41;;;25.18;26.05
60646;BME280;46462;32.608;-117.032;2022-11-15T03:35:26;99756.09;;;25.18;26.14
60646;BME280;46462;32.608;-117.032;2022-11-15T03:37:59;99754.39;;;25.13;26.14
60646;BME280;46462;32.608;-117.032;2022-11-15T03:40:29;99757.35;;;25.14;26.15
60646;BME280;46462;32.608;-117.032;2022-11-15T03:43:01;99758.49;;;25.21;26.08
60646;BME280;46462;32.608;-117.032;2022-11-15T03:45:29;99756.94;;;25.19;26.11
60646;BME280;46462;32.608;-117.032;2022-11-15T03:47:59;99755.04;;;25.17;26.08
60646;BME280;46462;32.608;-117.032;2022-11-15T03:50:26;99756.40;;;25.07;26.32
60646;BME280;46462;32.608;-117.032;2022-11-15T03:52:56;99761.11;;;25.06;26.27
60646;BME280;46462;32.608;-117.032;2022-11-15T03:55:26;99770.29;;;24.97;26.46
60646;BME280;46462;32.608;-117.032;2022-11-15T03:57:59;99769.90;;;25.03;26.29
60646;BME280;46462;32.608;-117.032;2022-11-15T04:00:26;99773.44;;;24.97;26.52
60646;BME280;46462;32.608;-117.032;2022-11-15T04:02:57;99777.68;;;25.00;26.60
60646;BME280;46462;32.608;-117.032;2022-11-15T04:05:27;99781.75;;;24.97;26.54
60646;BME280;46462;32.608;-117.032;2022-11-15T04:07:57;99785.64;;;24.91;26.69
60646;BME280;46462;32.608;-117.032;2022-11-15T04:10:27;99787.07;;;24.93;26.68
60646;BME280;46462;32.608;-117.032;2022-11-15T04:12:57;99787.13;;;24.91;26.66
60646;BME280;46462;32.608;-117.032;2022-11-15T04:15:27;99785.89;;;24.88;26.61
60646;BME280;46462;32.608;-117.032;2022-11-15T04:17:58;99788.44;;;24.86;26.59
60646;BME280;46462;32.608;-117.032;2022-11-15T04:20:30;99791.86;;;24.70;26.89
60646;BME280;46462;32.608;-117.032;2022-11-15T04:22:59;99788.31;;;24.75;26.82
60646;BME280;46462;32.608;-117.032;2022-11-15T04:25:29;99789.92;;;24.70;26.86
60646;BME280;46462;32.608;-117.032;2022-11-15T04:27:58;99795.49;;;24.72;26.79
60646;BME280;46462;32.608;-117.032;2022-11-15T04:30:29;99797.91;;;24.65;26.94
60646;BME280;46462;32.608;-117.032;2022-11-15T04:32:59;99800.30;;;24.76;27.07
60646;BME280;46462;32.608;-117.032;2022-11-15T04:35:29;99802.15;;;24.73;26.87
60646;BME280;46462;32.608;-117.032;2022-11-15T04:38:00;99803.71;;;24.60;27.15
60646;BME280;46462;32.608;-117.032;2022-11-15T04:40:29;99807.17;;;24.60;27.20
60646;BME280;46462;32.608;-117.032;2022-11-15T04:43:00;99809.19;;;24.68;27.02
60646;BME280;46462;32.608;-117.032;2022-11-15T04:45:30;99810.72;;;24.66;27.05
60646;BME280;46462;32.608;-117.032;2022-11-15T04:48:00;99810.22;;;24.59;27.25
60646;BME280;46462;32.608;-117.032;2022-11-15T04:50:30;99807.79;;;24.60;27.17
60646;BME280;46462;32.608;-117.032;2022-11-15T04:53:01;99809.49;;;24.51;27.40
60646;BME280;46462;32.608;-117.032;2022-11-15T04:55:31;99814.16;;;24.58;27.19
60646;BME280;46462;32.608;-117.032;2022-11-15T04:58:02;99817.52;;;24.52;27.30
60646;BME280;46462;32.608;-117.032;2022-11-15T05:00:31;99819.83;;;24.51;27.40
60646;BME280;46462;32.608;-117.032;2022-11-15T05:03:01;99816.97;;;24.51;27.28
60646;BME280;46462;32.608;-117.032;2022-11-15T05:05:32;99815.40;;;24.51;27.30
60646;BME280;46462;32.608;-117.032;2022-11-15T05:08:02;99817.74;;;24.42;27.52
60646;BME280;46462;32.608;-117.032;2022-11-15T05:10:32;99818.83;;;24.36;27.52
60646;BME280;46462;32.608;-117.032;2022-11-15T05:13:02;99822.27;;;24.28;27.75
60646;BME280;46462;32.608;-117.032;2022-11-15T05:15:33;99823.58;;;24.39;27.47
60646;BME280;46462;32.608;-117.032;2022-11-15T05:18:03;99821.64;;;24.47;27.36
60646;BME280;46462;32.608;-117.032;2022-11-15T05:20:33;99820.91;;;24.45;27.60
60646;BME280;46462;32.608;-117.032;2022-11-15T05:23:03;99822.95;;;24.40;27.52
60646;BME280;46462;32.608;-117.032;2022-11-15T05:25:35;99822.70;;;24.29;27.68
60646;BME280;46462;32.608;-117.032;2022-11-15T05:28:04;99822.27;;;24.34;27.62
60646;BME280;46462;32.608;-117.032;2022-11-15T05:30:34;99822.56;;;24.43;27.56
60646;BME280;46462;32.608;-117.032;2022-11-15T05:33:04;99823.19;;;24.31;27.69
60646;BME280;46462;32.608;-117.032;2022-11-15T05:35:38;99821.00;;;24.32;27.70
60646;BME280;46462;32.608;-117.032;2022-11-15T05:38:04;99823.80;;;24.29;27.85
60646;BME280;46462;32.608;-117.032;2022-11-15T05:40:35;99824.48;;;24.15;27.95
60646;BME280;46462;32.608;-117.032;2022-11-15T05:43:05;99825.26;;;24.02;28.19
60646;BME280;46462;32.608;-117.032;2022-11-15T05:45:35;99824.91;;;24.12;27.89
60646;BME280;46462;32.608;-117.032;2022-11-15T05:48:07;99825.19;;;24.25;27.83
60646;BME280;46462;32.608;-117.032;2022-11-15T05:50:38;99823.76;;;24.14;27.98
60646;BME280;46462;32.608;-117.032;2022-11-15T05:53:06;99821.28;;;24.03;28.09
60646;BME280;46462;32.608;-117.032;2022-11-15T05:55:38;99821.68;;;24.08;27.93
60646;BME280;46462;32.608;-117.032;2022-11-15T05:58:06;99825.02;;;24.08;28.13
60646;BME280;46462;32.608;-117.032;2022-11-15T06:00:37;99827.68;;;24.18;27.82
60646;BME280;46462;32.608;-117.032;2022-11-15T06:03:07;99830.00;;;24.12;27.97
60646;BME280;46462;32.608;-117.032;2022-11-15T06:05:37;99831.77;;;23.96;28.22
60646;BME280;46462;32.608;-117.032;2022-11-15T06:08:07;99834.40;;;24.12;27.91
60646;BME280;46462;32.608;-117.032;2022-11-15T06:10:37;99830.22;;;24.08;27.89
60646;BME280;46462;32.608;-117.032;2022-11-15T06:13:08;99830.92;;;24.05;28.02
60646;BME280;46462;32.608;-117.032;2022-11-15T06:15:38;99834.02;;;24.03;28.11
60646;BME280;46462;32.608;-117.032;2022-11-15T06:18:08;99835.19;;;23.92;28.25
60646;BME280;46462;32.608;-117.032;2022-11-15T06:20:38;99835.71;;;23.95;28.10
60646;BME280;46462;32.608;-117.032;2022-11-15T06:23:08;99836.81;;;23.93;28.14
60646;BME280;46462;32.608;-117.032;2022-11-15T06:25:39;99837.45;;;23.91;28.11
60646;BME280;46462;32.608;-117.032;2022-11-15T06:28:09;99839.12;;;23.86;28.28
60646;BME280;46462;32.608;-117.032;2022-11-15T06:30:39;99836.97;;;23.88;28.08
60646;BME280;46462;32.608;-117.032;2022-11-15T06:33:09;99835.21;;;23.77;28.14
60646;BME280;46462;32.608;-117.032;2022-11-15T06:35:40;99838.95;;;23.79;28.23
60646;BME280;46462;32.608;-117.032;2022-11-15T06:38:11;99839.43;;;23.81;28.16
60646;BME280;46462;32.608;-117.032;2022-11-15T06:40:40;99836.35;;;23.77;28.37
60646;BME280;46462;32.608;-117.032;2022-11-15T06:43:10;99832.66;;;23.75;28.05
60646;BME280;46462;32.608;-117.032;2022-11-15T06:45:40;99833.23;;;23.72;28.09
60646;BME280;46462;32.608;-117.032;2022-11-15T06:48:11;99834.43;;;23.82;28.14
60646;BME280;46462;32.608;-117.032;2022-11-15T06:50:41;99837.22;;;23.63;28.49
60646;BME280;46462;32.608;-117.032;2022-11-15T06:53:11;99833.45;;;23.59;28.56
60646;BME280;46462;32.608;-117.032;2022-11-15T06:55:41;99832.42;;;23.87;27.89
60646;BME280;46462;32.608;-117.032;2022-11-15T06:58:12;99833.70;;;23.82;28.08
60646;BME280;46462;32.608;-117.032;2022-11-15T07:00:42;99837.01;;;23.68;28.17
60646;BME280;46462;32.608;-117.032;2022-11-15T07:03:12;99837.79;;;23.63;28.17
60646;BME280;46462;32.608;-117.032;2022-11-15T07:05:42;99838.62;;;23.61;28.36
60646;BME280;46462;32.608;-117.032;2022-11-15T07:08:12;99837.13;;;23.68;28.09
60646;BME280;46462;32.608;-117.032;2022-11-15T07:10:43;99836.31;;;23.61;28.20
60646;BME280;46462;32.608;-117.032;2022-11-15T07:13:13;99834.20;;;23.55;28.38
60646;BME280;46462;32.608;-117.032;2022-11-15T07:15:43;99830.70;;;23.53;28.67
60646;BME280;46462;32.608;-117.032;2022-11-15T07:18:13;99832.69;;;23.43;28.49
60646;BME280;46462;32.608;-117.032;2022-11-15T07:20:44;99831.01;;;23.57;28.20
60646;BME280;46462;32.608;-117.032;2022-11-15T07:23:14;99831.61;;;23.53;28.68
60646;BME280;46462;32.608;-117.032;2022-11-15T07:25:44;99833.93;;;23.57;28.34
60646;BME280;46462;32.608;-117.032;2022-11-15T07:28:14;99831.94;;;23.54;28.45
60646;BME280;46462;32.608;-117.032;2022-11-15T07:30:45;99829.61;;;23.50;28.27
60646;BME280;46462;32.608;-117.032;2022-11-15T07:33:15;99823.72;;;23.38;28.67
60646;BME280;46462;32.608;-117.032;2022-11-15T07:35:45;99827.01;;;23.44;28.59
60646;BME280;46462;32.608;-117.032;2022-11-15T07:38:16;99829.60;;;23.43;28.29
60646;BME280;46462;32.608;-117.032;2022-11-15T07:40:46;99828.13;;;23.40;28.53
60646;BME280;46462;32.608;-117.032;2022-11-15T07:43:16;99820.29;;;23.39;28.16
60646;BME280;46462;32.608;-117.032;2022-11-15T07:45:46;99818.05;;;23.21;28.80
60646;BME280;46462;32.608;-117.032;2022-11-15T07:48:16;99814.33;;;23.20;28.57
60646;BME280;46462;32.608;-117.032;2022-11-15T07:50:46;99815.01;;;23.27;28.71
60646;BME280;46462;32.608;-117.032;2022-11-15T07:53:17;99816.96;;;23.30;28.40
60646;BME280;46462;32.608;-117.032;2022-11-15T07:55:47;99818.31;;;23.15;28.59
60646;BME280;46462;32.608;-117.032;2022-11-15T07:58:17;99817.88;;;23.25;28.89
60646;BME280;46462;32.608;-117.032;2022-11-15T08:00:47;99817.99;;;23.30;28.49
60646;BME280;46462;32.608;-117.032;2022-11-15T08:03:18;99817.49;;;23.19;28.59
60646;BME280;46462;32.608;-117.032;2022-11-15T08:05:51;99816.85;;;23.07;29.04
60646;BME280;46462;32.608;-117.032;2022-11-15T08:08:18;99813.80;;;23.14;28.72
60646;BME280;46462;32.608;-117.032;2022-11-15T08:10:48;99814.42;;;23.05;28.98
60646;BME280;46462;32.608;-117.032;2022-11-15T08:13:19;99815.36;;;23.07;28.92
60646;BME280;46462;32.608;-117.032;2022-11-15T08:15:49;99812.13;;;23.14;28.64
60646;BME280;46462;32.608;-117.032;2022-11-15T08:18:19;99814.19;;;23.14;28.64
60646;BME280;46462;32.608;-117.032;2022-11-15T08:20:49;99818.66;;;23.25;28.65
60646;BME280;46462;32.608;-117.032;2022-11-15T08:23:19;99816.83;;;23.34;28.36
60646;BME280;46462;32.608;-117.032;2022-11-15T08:25:50;99812.90;;;23.18;28.66
60646;BME280;46462;32.608;-117.032;2022-11-15T08:28:20;99816.76;;;23.07;28.88
60646;BME280;46462;32.608;-117.032;2022-11-15T08:30:50;99816.60;;;23.09;28.51
60646;BME280;46462;32.608;-117.032;2022-11-15T08:33:20;99816.79;;;23.09;28.62
60646;BME280;46462;32.608;-117.032;2022-11-15T08:35:51;99814.08;;;23.05;28.53
60646;BME280;46462;32.608;-117.032;2022-11-15T08:38:21;99812.12;;;22.91;28.76
60646;BME280;46462;32.608;-117.032;2022-11-15T08:40:52;99817.63;;;23.07;28.65
60646;BME280;46462;32.608;-117.032;2022-11-15T08:43:21;99820.00;;;22.91;28.86
60646;BME280;46462;32.608;-117.032;2022-11-15T08:45:52;99820.02;;;22.93;28.79
60646;BME280;46462;32.608;-117.032;2022-11-15T08:48:22;99818.30;;;23.00;28.72
60646;BME280;46462;32.608;-117.032;2022-11-15T08:50:54;99817.78;;;22.99;28.91
60646;BME280;46462;32.608;-117.032;2022-11-15T08:53:23;99819.18;;;22.84;28.72
60646;BME280;46462;32.608;-117.032;2022-11-15T08:55:53;99826.43;;;23.04;28.63
60646;BME280;46462;32.608;-117.032;2022-11-15T08:58:23;99829.03;;;22.93;28.58
60646;BME280;46462;32.608;-117.032;2022-11-15T09:00:53;99825.74;;;22.94;28.76
60646;BME280;46462;32.608;-117.032;2022-11-15T09:03:24;99823.14;;;22.79;29.21
60646;BME280;46462;32.608;-117.032;2022-11-15T09:05:56;99824.82;;;22.74;29.01
60646;BME280;46462;32.608;-117.032;2022-11-15T09:08:24;99828.26;;;22.94;28.45
60646;BME280;46462;32.608;-117.032;2022-11-15T09:10:54;99831.69;;;22.82;28.67
60646;BME280;46462;32.608;-117.032;2022-11-15T09:13:24;99833.02;;;22.88;28.43
60646;BME280;46462;32.608;-117.032;2022-11-15T09:15:58;99832.25;;;22.89;28.45
60646;BME280;46462;32.608;-117.032;2022-11-15T09:18:25;99832.06;;;22.99;28.40
60646;BME280;46462;32.608;-117.032;2022-11-15T09:20:56;99833.07;;;23.04;28.08
60646;BME280;46462;32.608;-117.032;2022-11-15T09:23:26;99835.35;;;22.90;28.49
60646;BME280;46462;32.608;-117.032;2022-11-15T09:25:59;99832.43;;;22.91;28.72
60646;BME280;46462;32.608;-117.032;2022-11-15T09:28:26;99828.48;;;22.76;28.79
60646;BME280;46462;32.608;-117.032;2022-11-15T09:30:57;99828.72;;;22.70;28.91
60646;BME280;46462;32.608;-117.032;2022-11-15T09:33:27;99826.15;;;22.89;28.67
60646;BME280;46462;32.608;-117.032;2022-11-15T09:36:01;99819.50;;;22.78;28.85
60646;BME280;46462;32.608;-117.032;2022-11-15T09:38:27;99817.10;;;22.84;28.62
60646;BME280;46462;32.608;-117.032;2022-11-15T09:43:33;99813.45;;;22.76;28.75
60646;BME280;46462;32.608;-117.032;2022-11-15T09:46:12;99809.12;;;22.84;28.76
60646;BME280;46462;32.608;-117.032;2022-11-15T09:48:42;99804.52;;;22.89;28.39
60646;BME280;46462;32.608;-117.032;2022-11-15T09:50:58;99805.68;;;22.75;28.47
60646;BME280;46462;32.608;-117.032;2022-11-15T09:53:34;99799.12;;;22.75;28.65
60646;BME280;46462;32.608;-117.032;2022-11-15T09:56:00;99793.74;;;22.70;28.63
60646;BME280;46462;32.608;-117.032;2022-11-15T09:58:35;99788.97;;;22.73;28.40
60646;BME280;46462;32.608;-117.032;2022-11-15T10:01:04;99789.44;;;22.69;28.81
60646;BME280;46462;32.608;-117.032;2022-11-15T10:03:33;99788.53;;;22.50;29.10
60646;BME280;46462;32.608;-117.032;2022-11-15T10:06:02;99786.30;;;22.54;29.19
60646;BME280;46462;32.608;-117.032;2022-11-15T10:08:43;99779.51;;;22.53;29.06
60646;BME280;46462;32.608;-117.032;2022-11-15T10:11:02;99776.47;;;22.67;28.64
60646;BME280;46462;32.608;-117.032;2022-11-15T10:13:33;99775.61;;;22.60;28.93
60646;BME280;46462;32.608;-117.032;2022-11-15T10:16:09;99773.68;;;22.70;28.49
60646;BME280;46462;32.608;-117.032;2022-11-15T10:18:37;99774.85;;;22.53;28.78
60646;BME280;46462;32.608;-117.032;2022-11-15T10:21:09;99771.33;;;22.71;28.50
60646;BME280;46462;32.608;-117.032;2022-11-15T10:23:32;99774.14;;;22.56;28.83
60646;BME280;46462;32.608;-117.032;2022-11-15T10:26:07;99773.72;;;22.55;28.67
60646;BME280;46462;32.608;-117.032;2022-11-15T10:28:32;99774.13;;;22.40;29.10
60646;BME280;46462;32.608;-117.032;2022-11-15T10:31:02;99765.69;;;22.67;28.38
60646;BME280;46462;32.608;-117.032;2022-11-15T10:33:33;99770.06;;;22.50;28.73
60646;BME280;46462;32.608;-117.032;2022-11-15T10:38:33;99775.23;;;22.50;28.63
60646;BME280;46462;32.608;-117.032;2022-11-15T10:41:08;99777.02;;;22.44;28.96
60646;BME280;46462;32.608;-117.032;2022-11-15T10:43:33;99777.47;;;22.59;28.77
60646;BME280;46462;32.608;-117.032;2022-11-15T10:48:33;99775.49;;;22.53;28.73
60646;BME280;46462;32.608;-117.032;2022-11-15T10:51:18;99772.87;;;22.49;28.50
60646;BME280;46462;32.608;-117.032;2022-11-15T10:53:41;99773.39;;;22.53;28.41
60646;BME280;46462;32.608;-117.032;2022-11-15T10:56:06;99772.32;;;22.56;28.66
60646;BME280;46462;32.608;-117.032;2022-11-15T10:58:37;99770.83;;;22.42;28.83
60646;BME280;46462;32.608;-117.032;2022-11-15T11:01:11;99768.97;;;22.49;28.33
60646;BME280;46462;32.608;-117.032;2022-11-15T11:03:37;99764.93;;;22.31;28.72
60646;BME280;46462;32.608;-117.032;2022-11-15T11:06:08;99761.78;;;22.22;28.98
60646;BME280;46462;32.608;-117.032;2022-11-15T11:08:36;99757.32;;;22.38;28.49
60646;BME280;46462;32.608;-117.032;2022-11-15T11:11:06;99759.03;;;22.20;28.83
60646;BME280;46462;32.608;-117.032;2022-11-15T11:13:38;99760.33;;;22.28;28.72
60646;BME280;46462;32.608;-117.032;2022-11-15T11:16:20;99762.64;;;22.12;29.15
60646;BME280;46462;32.608;-117.032;2022-11-15T11:18:42;99762.78;;;22.16;29.00
60646;BME280;46462;32.608;-117.032;2022-11-15T11:21:13;99760.58;;;22.44;28.54
60646;BME280;46462;32.608;-117.032;2022-11-15T11:23:45;99761.41;;;22.29;28.65
60646;BME280;46462;32.608;-117.032;2022-11-15T11:26:19;99764.01;;;22.24;28.76
60646;BME280;46462;32.608;-117.032;2022-11-15T11:28:42;99758.98;;;22.12;28.89
60646;BME280;46462;32.608;-117.032;2022-11-15T11:31:20;99754.68;;;21.87;29.49
60646;BME280;46462;32.608;-117.032;2022-11-15T11:33:44;99755.47;;;22.04;28.81
60646;BME280;46462;32.608;-117.032;2022-11-15T11:36:18;99755.30;;;22.03;29.08
60646;BME280;46462;32.608;-117.032;2022-11-15T11:38:47;99757.72;;;22.27;28.60
60646;BME280;46462;32.608;-117.032;2022-11-15T11:41:17;99759.42;;;22.13;28.88
60646;BME280;46462;32.608;-117.032;2022-11-15T11:43:47;99763.15;;;22.24;28.45
60646;BME280;46462;32.608;-117.032;2022-11-15T11:46:21;99765.87;;;22.08;28.90
60646;BME280;46462;32.608;-117.032;2022-11-15T11:48:42;99762.91;;;22.16;28.62
60646;BME280;46462;32.608;-117.032;2022-11-15T11:51:18;99762.88;;;22.17;28.74
60646;BME280;46462;32.608;-117.032;2022-11-15T11:53:44;99765.18;;;22.04;29.01
60646;BME280;46462;32.608;-117.032;2022-11-15T11:56:18;99762.00;;;22.23;28.54
60646;BME280;46462;32.608;-117.032;2022-11-15T11:58:43;99761.65;;;22.05;28.73
60646;BME280;46462;32.608;-117.032;2022-11-15T12:01:14;99763.76;;;22.11;28.86
60646;BME280;46462;32.608;-117.032;2022-11-15T12:03:43;99763.21;;;22.19;28.48
60646;BME280;46462;32.608;-117.032;2022-11-15T12:06:19;99763.22;;;21.95;28.74
60646;BME280;46462;32.608;-117.032;2022-11-15T12:08:46;99764.70;;;21.97;28.84
60646;BME280;46462;32.608;-117.032;2022-11-15T12:11:14;99767.24;;;22.09;28.51
60646;BME280;46462;32.608;-117.032;2022-11-15T12:13:43;99765.53;;;21.96;28.97
60646;BME280;46462;32.608;-117.032;2022-11-15T12:16:16;99761.58;;;21.94;28.94
60646;BME280;46462;32.608;-117.032;2022-11-15T12:18:46;99766.07;;;21.98;28.71
60646;BME280;46462;32.608;-117.032;2022-11-15T12:21:19;99771.06;;;22.03;28.83
60646;BME280;46462;32.608;-117.032;2022-11-15T12:23:46;99771.57;;;22.04;28.68
60646;BME280;46462;32.608;-117.032;2022-11-15T12:26:19;99777.19;;;21.90;28.93
60646;BME280;46462;32.608;-117.032;2022-11-15T12:28:47;99777.57;;;21.95;28.66
60646;BME280;46462;32.608;-117.032;2022-11-15T12:31:17;99778.98;;;21.82;28.92
60646;BME280;46462;32.608;-117.032;2022-11-15T12:33:46;99777.22;;;21.85;28.94
60646;BME280;46462;32.608;-117.032;2022-11-15T12:38:52;99774.51;;;21.93;28.65
60646;BME280;46462;32.608;-117.032;2022-11-15T12:41:17;99777.10;;;21.93;28.58
60646;BME280;46462;32.608;-117.032;2022-11-15T12:43:46;99779.51;;;21.88;28.80
60646;BME280;46462;32.608;-117.032;2022-11-15T12:46:26;99780.24;;;21.84;28.75
60646;BME280;46462;32.608;-117.032;2022-11-15T12:48:49;99782.78;;;21.86;28.72
60646;BME280;46462;32.608;-117.032;2022-11-15T12:51:16;99778.99;;;21.60;29.15
60646;BME280;46462;32.608;-117.032;2022-11-15T12:53:46;99781.25;;;21.69;28.87
60646;BME280;46462;32.608;-117.032;2022-11-15T12:56:21;99781.20;;;21.76;28.84
60646;BME280;46462;32.608;-117.032;2022-11-15T12:58:49;99782.86;;;21.78;28.95